sensor_id;sensor_type;location;lat;lon;timestamp;temperature;humidity
47825;DHT22;33589;48.242;14.676;2023-06-04T00:02:24;20.90;66.20
47825;DHT22;33589;48.242;14.676;2023-06-04T00:04:49;20.80;66.10
47825;DHT22;33589;48.242;14.676;2023-06-04T00:07:15;20.80;66.30
47825;DHT22;33589;48.242;14.676;2023-06-04T00:09:41;20.80;66.20
47825;DHT22;33589;48.242;14.676;2023-06-04T00:12:07;20.80;66.40
47825;DHT22;33589;48.242;14.676;2023-06-04T00:14:32;20.80;66.50
47825;DHT22;33589;48.242;14.676;2023-06-04T00:16:58;20.80;66.60
47825;DHT22;33589;48.242;14.676;2023-06-04T00:19:24;20.70;66.70
47825;DHT22;33589;48.242;14.676;2023-06-04T00:21:49;20.60;66.70
47825;DHT22;33589;48.242;14.676;2023-06-04T00:24:16;20.60;66.90
47825;DHT22;33589;48.242;14.676;2023-06-04T00:26:42;20.60;66.90
47825;DHT22;33589;48.242;14.676;2023-06-04T00:29:08;20.70;66.80
47825;DHT22;33589;48.242;14.676;2023-06-04T00:31:33;20.60;66.50
47825;DHT22;33589;48.242;14.676;2023-06-04T00:33:59;20.60;66.70
47825;DHT22;33589;48.242;14.676;2023-06-04T00:36:24;20.60;66.60
47825;DHT22;33589;48.242;14.676;2023-06-04T00:38:50;20.50;66.80
47825;DHT22;33589;48.242;14.676;2023-06-04T00:41:16;20.50;67.30
47825;DHT22;33589;48.242;14.676;2023-06-04T00:43:42;20.30;68.30
47825;DHT22;33589;48.242;14.676;2023-06-04T00:46:12;20.10;67.90
47825;DHT22;33589;48.242;14.676;2023-06-04T00:48:44;20.20;68.20
47825;DHT22;33589;48.242;14.676;2023-06-04T00:51:11;20.20;68.10
47825;DHT22;33589;48.242;14.676;2023-06-04T00:53:37;20.20;67.90
47825;DHT22;33589;48.242;14.676;2023-06-04T00:56:03;20.20;67.70
47825;DHT22;33589;48.242;14.676;2023-06-04T00:58:32;20.30;67.50
47825;DHT22;33589;48.242;14.676;2023-06-04T01:00:59;20.30;67.50
47825;DHT22;33589;48.242;14.676;2023-06-04T01:03:32;20.30;67.50
47825;DHT22;33589;48.242;14.676;2023-06-04T01:06:19;20.30;67.40
47825;DHT22;33589;48.242;14.676;2023-06-04T01:08:51;20.30;67.20
47825;DHT22;33589;48.242;14.676;2023-06-04T01:11:31;20.30;67.50
47825;DHT22;33589;48.242;14.676;2023-06-04T01:13:56;20.30;67.50
47825;DHT22;33589;48.242;14.676;2023-06-04T01:16:22;20.20;67.30
47825;DHT22;33589;48.242;14.676;2023-06-04T01:18:49;20.20;67.60
47825;DHT22;33589;48.242;14.676;2023-06-04T01:21:17;20.10;67.50
47825;DHT22;33589;48.242;14.676;2023-06-04T01:23:50;20.00;67.70
47825;DHT22;33589;48.242;14.676;2023-06-04T01:26:27;20.00;67.90
47825;DHT22;33589;48.242;14.676;2023-06-04T01:28:57;20.10;67.90
47825;DHT22;33589;48.242;14.676;2023-06-04T01:31:24;20.10;67.70
47825;DHT22;33589;48.242;14.676;2023-06-04T01:33:55;20.10;67.70
47825;DHT22;33589;48.242;14.676;2023-06-04T01:36:24;20.20;67.80
47825;DHT22;33589;48.242;14.676;2023-06-04T01:38:50;20.10;67.50
47825;DHT22;33589;48.242;14.676;2023-06-04T01:41:17;20.30;67.20
47825;DHT22;33589;48.242;14.676;2023-06-04T01:43:42;20.30;67.10
47825;DHT22;33589;48.242;14.676;2023-06-04T01:46:08;20.30;67.00
47825;DHT22;33589;48.242;14.676;2023-06-04T01:48:34;20.30;67.20
47825;DHT22;33589;48.242;14.676;2023-06-04T01:51:01;20.30;67.20
47825;DHT22;33589;48.242;14.676;2023-06-04T01:53:27;20.30;67.50
47825;DHT22;33589;48.242;14.676;2023-06-04T01:55:53;20.20;67.60
47825;DHT22;33589;48.242;14.676;2023-06-04T01:58:20;20.20;67.70
47825;DHT22;33589;48.242;14.676;2023-06-04T02:00:56;20.20;67.50
47825;DHT22;33589;48.242;14.676;2023-06-04T02:03:26;20.20;67.50
47825;DHT22;33589;48.242;14.676;2023-06-04T02:05:52;20.10;67.90
47825;DHT22;33589;48.242;14.676;2023-06-04T02:08:18;20.10;68.00
47825;DHT22;33589;48.242;14.676;2023-06-04T02:10:50;20.10;67.80
47825;DHT22;33589;48.242;14.676;2023-06-04T02:13:16;20.10;67.90
47825;DHT22;33589;48.242;14.676;2023-06-04T02:15:42;20.10;68.00
47825;DHT22;33589;48.242;14.676;2023-06-04T02:18:20;20.00;67.90
47825;DHT22;33589;48.242;14.676;2023-06-04T02:20:49;20.00;68.20
47825;DHT22;33589;48.242;14.676;2023-06-04T02:23:16;20.00;68.10
47825;DHT22;33589;48.242;14.676;2023-06-04T02:25:43;20.00;68.00
47825;DHT22;33589;48.242;14.676;2023-06-04T02:28:13;20.00;68.10
47825;DHT22;33589;48.242;14.676;2023-06-04T02:30:39;19.90;67.90
47825;DHT22;33589;48.242;14.676;2023-06-04T02:33:04;19.90;68.10
47825;DHT22;33589;48.242;14.676;2023-06-04T02:35:31;19.90;68.30
47825;DHT22;33589;48.242;14.676;2023-06-04T02:37:57;19.80;68.30
47825;DHT22;33589;48.242;14.676;2023-06-04T02:40:24;19.70;68.60
47825;DHT22;33589;48.242;14.676;2023-06-04T02:42:52;19.70;68.60
47825;DHT22;33589;48.242;14.676;2023-06-04T02:45:18;19.70;68.70
47825;DHT22;33589;48.242;14.676;2023-06-04T02:47:43;19.60;68.80
47825;DHT22;33589;48.242;14.676;2023-06-04T02:50:09;19.50;69.00
47825;DHT22;33589;48.242;14.676;2023-06-04T02:52:35;19.50;69.00
47825;DHT22;33589;48.242;14.676;2023-06-04T02:55:04;19.50;69.10
47825;DHT22;33589;48.242;14.676;2023-06-04T02:57:30;19.40;69.10
47825;DHT22;33589;48.242;14.676;2023-06-04T02:59:56;19.40;69.30
47825;DHT22;33589;48.242;14.676;2023-06-04T03:02:21;19.40;69.50
47825;DHT22;33589;48.242;14.676;2023-06-04T03:04:48;19.40;69.50
47825;DHT22;33589;48.242;14.676;2023-06-04T03:07:16;19.40;69.30
47825;DHT22;33589;48.242;14.676;2023-06-04T03:09:46;19.40;69.10
47825;DHT22;33589;48.242;14.676;2023-06-04T03:12:12;19.40;69.10
47825;DHT22;33589;48.242;14.676;2023-06-04T03:14:38;19.40;69.20
47825;DHT22;33589;48.242;14.676;2023-06-04T03:17:04;19.30;69.20
47825;DHT22;33589;48.242;14.676;2023-06-04T03:19:36;19.30;69.20
47825;DHT22;33589;48.242;14.676;2023-06-04T03:22:03;19.30;69.10
47825;DHT22;33589;48.242;14.676;2023-06-04T03:24:37;19.30;68.90
47825;DHT22;33589;48.242;14.676;2023-06-04T03:27:04;19.30;68.90
47825;DHT22;33589;48.242;14.676;2023-06-04T03:29:32;19.30;68.70
47825;DHT22;33589;48.242;14.676;2023-06-04T03:32:00;19.30;68.60
47825;DHT22;33589;48.242;14.676;2023-06-04T03:34:26;19.30;68.40
47825;DHT22;33589;48.242;14.676;2023-06-04T03:36:55;19.40;68.40
47825;DHT22;33589;48.242;14.676;2023-06-04T03:39:22;19.40;68.30
47825;DHT22;33589;48.242;14.676;2023-06-04T03:41:48;19.40;68.20
47825;DHT22;33589;48.242;14.676;2023-06-04T03:44:16;19.40;68.40
47825;DHT22;33589;48.242;14.676;2023-06-04T03:46:43;19.40;68.40
47825;DHT22;33589;48.242;14.676;2023-06-04T03:49:09;19.40;68.20
47825;DHT22;33589;48.242;14.676;2023-06-04T03:51:37;19.40;69.10
47825;DHT22;33589;48.242;14.676;2023-06-04T03:54:03;19.40;68.40
47825;DHT22;33589;48.242;14.676;2023-06-04T03:56:31;19.50;68.00
47825;DHT22;33589;48.242;14.676;2023-06-04T03:58:57;19.50;68.10
47825;DHT22;33589;48.242;14.676;2023-06-04T04:01:23;19.50;67.90
47825;DHT22;33589;48.242;14.676;2023-06-04T04:03:50;19.50;68.00
47825;DHT22;33589;48.242;14.676;2023-06-04T04:06:17;19.50;68.10
47825;DHT22;33589;48.242;14.676;2023-06-04T04:08:43;19.50;68.10
47825;DHT22;33589;48.242;14.676;2023-06-04T04:11:11;19.40;68.20
47825;DHT22;33589;48.242;14.676;2023-06-04T04:13:37;19.40;68.40
47825;DHT22;33589;48.242;14.676;2023-06-04T04:16:03;19.40;68.70
47825;DHT22;33589;48.242;14.676;2023-06-04T04:18:32;19.40;68.70
47825;DHT22;33589;48.242;14.676;2023-06-04T04:20:59;19.40;68.70
47825;DHT22;33589;48.242;14.676;2023-06-04T04:23:26;19.40;68.70
47825;DHT22;33589;48.242;14.676;2023-06-04T04:25:52;19.50;68.90
47825;DHT22;33589;48.242;14.676;2023-06-04T04:28:19;19.50;68.80
47825;DHT22;33589;48.242;14.676;2023-06-04T04:30:46;19.40;69.00
47825;DHT22;33589;48.242;14.676;2023-06-04T04:33:13;19.40;69.10
47825;DHT22;33589;48.242;14.676;2023-06-04T04:35:44;19.40;69.30
47825;DHT22;33589;48.242;14.676;2023-06-04T04:38:11;19.40;69.10
47825;DHT22;33589;48.242;14.676;2023-06-04T04:40:43;19.50;69.00
47825;DHT22;33589;48.242;14.676;2023-06-04T04:43:11;19.50;68.70
47825;DHT22;33589;48.242;14.676;2023-06-04T04:45:38;19.60;68.80
47825;DHT22;33589;48.242;14.676;2023-06-04T04:48:05;19.60;68.80
47825;DHT22;33589;48.242;14.676;2023-06-04T04:50:31;19.70;68.70
47825;DHT22;33589;48.242;14.676;2023-06-04T04:52:58;19.70;68.70
47825;DHT22;33589;48.242;14.676;2023-06-04T04:55:24;19.80;68.50
47825;DHT22;33589;48.242;14.676;2023-06-04T04:57:51;19.90;68.30
47825;DHT22;33589;48.242;14.676;2023-06-04T05:00:18;19.90;68.60
47825;DHT22;33589;48.242;14.676;2023-06-04T05:02:48;19.90;68.00
47825;DHT22;33589;48.242;14.676;2023-06-04T05:05:14;20.00;68.10
47825;DHT22;33589;48.242;14.676;2023-06-04T05:07:43;20.10;67.90
47825;DHT22;33589;48.242;14.676;2023-06-04T05:10:09;20.10;67.70
47825;DHT22;33589;48.242;14.676;2023-06-04T05:12:36;20.20;67.50
47825;DHT22;33589;48.242;14.676;2023-06-04T05:15:03;20.20;67.30
47825;DHT22;33589;48.242;14.676;2023-06-04T05:17:29;20.30;67.30
47825;DHT22;33589;48.242;14.676;2023-06-04T05:20:03;20.30;67.20
47825;DHT22;33589;48.242;14.676;2023-06-04T05:22:32;20.40;67.40
47825;DHT22;33589;48.242;14.676;2023-06-04T05:24:58;20.40;67.30
47825;DHT22;33589;48.242;14.676;2023-06-04T05:27:27;20.50;67.40
47825;DHT22;33589;48.242;14.676;2023-06-04T05:29:53;20.70;67.20
47825;DHT22;33589;48.242;14.676;2023-06-04T05:32:19;20.80;66.60
47825;DHT22;33589;48.242;14.676;2023-06-04T05:34:46;20.90;66.30
47825;DHT22;33589;48.242;14.676;2023-06-04T05:37:13;21.00;66.10
47825;DHT22;33589;48.242;14.676;2023-06-04T05:39:42;21.00;65.60
47825;DHT22;33589;48.242;14.676;2023-06-04T05:42:11;21.10;65.80
47825;DHT22;33589;48.242;14.676;2023-06-04T05:44:38;21.30;65.40
47825;DHT22;33589;48.242;14.676;2023-06-04T05:47:05;21.40;65.30
47825;DHT22;33589;48.242;14.676;2023-06-04T05:49:35;21.60;65.10
47825;DHT22;33589;48.242;14.676;2023-06-04T05:52:01;21.70;64.50
47825;DHT22;33589;48.242;14.676;2023-06-04T05:54:28;21.80;64.50
47825;DHT22;33589;48.242;14.676;2023-06-04T05:56:54;21.90;63.90
47825;DHT22;33589;48.242;14.676;2023-06-04T05:59:20;22.10;63.80
47825;DHT22;33589;48.242;14.676;2023-06-04T06:01:45;22.20;63.20
47825;DHT22;33589;48.242;14.676;2023-06-04T06:04:13;22.20;62.20
47825;DHT22;33589;48.242;14.676;2023-06-04T06:06:39;22.20;62.50
47825;DHT22;33589;48.242;14.676;2023-06-04T06:09:05;22.30;62.30
47825;DHT22;33589;48.242;14.676;2023-06-04T06:11:31;22.50;61.50
47825;DHT22;33589;48.242;14.676;2023-06-04T06:13:57;22.60;62.00
47825;DHT22;33589;48.242;14.676;2023-06-04T06:16:22;22.80;61.80
47825;DHT22;33589;48.242;14.676;2023-06-04T06:18:48;23.00;61.00
47825;DHT22;33589;48.242;14.676;2023-06-04T06:21:14;23.10;60.70
47825;DHT22;33589;48.242;14.676;2023-06-04T06:23:40;23.20;60.90
47825;DHT22;33589;48.242;14.676;2023-06-04T06:26:06;23.40;61.00
47825;DHT22;33589;48.242;14.676;2023-06-04T06:28:37;23.50;60.30
47825;DHT22;33589;48.242;14.676;2023-06-04T06:31:03;23.70;60.50
47825;DHT22;33589;48.242;14.676;2023-06-04T06:33:29;23.80;59.70
47825;DHT22;33589;48.242;14.676;2023-06-04T06:35:57;23.90;59.60
47825;DHT22;33589;48.242;14.676;2023-06-04T06:38:25;23.90;58.70
47825;DHT22;33589;48.242;14.676;2023-06-04T06:40:52;24.00;59.20
47825;DHT22;33589;48.242;14.676;2023-06-04T06:43:17;24.10;58.30
47825;DHT22;33589;48.242;14.676;2023-06-04T06:45:43;24.10;58.90
47825;DHT22;33589;48.242;14.676;2023-06-04T06:48:09;24.10;58.20
47825;DHT22;33589;48.242;14.676;2023-06-04T06:50:34;24.10;57.70
47825;DHT22;33589;48.242;14.676;2023-06-04T06:53:02;23.90;57.00
47825;DHT22;33589;48.242;14.676;2023-06-04T06:55:28;23.60;57.90
47825;DHT22;33589;48.242;14.676;2023-06-04T06:57:53;23.50;58.20
47825;DHT22;33589;48.242;14.676;2023-06-04T07:00:19;23.40;56.80
47825;DHT22;33589;48.242;14.676;2023-06-04T07:02:44;23.10;57.50
47825;DHT22;33589;48.242;14.676;2023-06-04T07:05:11;22.90;58.30
47825;DHT22;33589;48.242;14.676;2023-06-04T07:07:36;22.80;58.10
47825;DHT22;33589;48.242;14.676;2023-06-04T07:10:03;22.70;58.60
47825;DHT22;33589;48.242;14.676;2023-06-04T07:12:29;22.90;59.00
47825;DHT22;33589;48.242;14.676;2023-06-04T07:14:55;23.20;57.40
47825;DHT22;33589;48.242;14.676;2023-06-04T07:17:21;23.20;57.20
47825;DHT22;33589;48.242;14.676;2023-06-04T07:19:47;23.20;57.90
47825;DHT22;33589;48.242;14.676;2023-06-04T07:22:13;23.40;56.20
47825;DHT22;33589;48.242;14.676;2023-06-04T07:24:41;23.50;56.50
47825;DHT22;33589;48.242;14.676;2023-06-04T07:27:14;23.90;56.40
47825;DHT22;33589;48.242;14.676;2023-06-04T07:29:40;24.20;55.50
47825;DHT22;33589;48.242;14.676;2023-06-04T07:32:07;24.50;54.50
47825;DHT22;33589;48.242;14.676;2023-06-04T07:34:33;24.80;53.80
47825;DHT22;33589;48.242;14.676;2023-06-04T07:36:59;25.10;53.60
47825;DHT22;33589;48.242;14.676;2023-06-04T07:39:24;25.10;51.80
47825;DHT22;33589;48.242;14.676;2023-06-04T07:41:50;24.80;53.50
47825;DHT22;33589;48.242;14.676;2023-06-04T07:44:16;24.80;53.60
47825;DHT22;33589;48.242;14.676;2023-06-04T07:46:42;25.10;53.30
47825;DHT22;33589;48.242;14.676;2023-06-04T07:49:09;24.60;54.00
47825;DHT22;33589;48.242;14.676;2023-06-04T07:51:34;24.60;54.80
47825;DHT22;33589;48.242;14.676;2023-06-04T07:54:00;24.40;55.00
47825;DHT22;33589;48.242;14.676;2023-06-04T07:56:27;24.60;54.80
47825;DHT22;33589;48.242;14.676;2023-06-04T07:58:53;24.50;54.30
47825;DHT22;33589;48.242;14.676;2023-06-04T08:01:18;24.20;54.40
47825;DHT22;33589;48.242;14.676;2023-06-04T08:03:44;23.90;55.30
47825;DHT22;33589;48.242;14.676;2023-06-04T08:06:10;23.90;56.30
47825;DHT22;33589;48.242;14.676;2023-06-04T08:08:36;24.10;56.10
47825;DHT22;33589;48.242;14.676;2023-06-04T08:11:02;24.90;55.70
47825;DHT22;33589;48.242;14.676;2023-06-04T08:13:28;25.80;53.40
47825;DHT22;33589;48.242;14.676;2023-06-04T08:15:53;26.90;51.20
47825;DHT22;33589;48.242;14.676;2023-06-04T08:18:19;28.10;48.70
47825;DHT22;33589;48.242;14.676;2023-06-04T08:20:45;29.20;47.00
47825;DHT22;33589;48.242;14.676;2023-06-04T08:23:11;30.70;45.10
47825;DHT22;33589;48.242;14.676;2023-06-04T08:25:36;29.90;45.30
47825;DHT22;33589;48.242;14.676;2023-06-04T08:28:02;28.50;48.50
47825;DHT22;33589;48.242;14.676;2023-06-04T08:30:28;27.20;50.60
47825;DHT22;33589;48.242;14.676;2023-06-04T08:32:54;26.30;52.50
47825;DHT22;33589;48.242;14.676;2023-06-04T08:35:20;25.60;53.30
47825;DHT22;33589;48.242;14.676;2023-06-04T08:37:46;25.40;54.00
47825;DHT22;33589;48.242;14.676;2023-06-04T08:40:12;25.30;54.20
47825;DHT22;33589;48.242;14.676;2023-06-04T08:42:42;25.40;54.10
47825;DHT22;33589;48.242;14.676;2023-06-04T08:45:12;25.40;53.30
47825;DHT22;33589;48.242;14.676;2023-06-04T08:47:49;25.10;53.10
47825;DHT22;33589;48.242;14.676;2023-06-04T08:50:18;25.00;52.90
47825;DHT22;33589;48.242;14.676;2023-06-04T08:52:44;24.90;52.60
47825;DHT22;33589;48.242;14.676;2023-06-04T08:55:11;24.90;52.70
47825;DHT22;33589;48.242;14.676;2023-06-04T08:57:40;25.00;52.90
47825;DHT22;33589;48.242;14.676;2023-06-04T09:00:07;25.10;52.00
47825;DHT22;33589;48.242;14.676;2023-06-04T09:02:36;25.00;52.20
47825;DHT22;33589;48.242;14.676;2023-06-04T09:05:06;25.00;51.70
47825;DHT22;33589;48.242;14.676;2023-06-04T09:07:39;24.90;52.20
47825;DHT22;33589;48.242;14.676;2023-06-04T09:10:07;25.20;52.20
47825;DHT22;33589;48.242;14.676;2023-06-04T09:12:36;25.50;52.40
47825;DHT22;33589;48.242;14.676;2023-06-04T09:15:02;25.70;51.70
47825;DHT22;33589;48.242;14.676;2023-06-04T09:17:29;26.00;51.90
47825;DHT22;33589;48.242;14.676;2023-06-04T09:19:55;26.20;51.30
47825;DHT22;33589;48.242;14.676;2023-06-04T09:22:32;26.40;51.00
47825;DHT22;33589;48.242;14.676;2023-06-04T09:24:57;26.50;50.30
47825;DHT22;33589;48.242;14.676;2023-06-04T09:27:23;26.60;51.00
47825;DHT22;33589;48.242;14.676;2023-06-04T09:29:57;26.70;50.80
47825;DHT22;33589;48.242;14.676;2023-06-04T09:34:54;26.30;51.40
47825;DHT22;33589;48.242;14.676;2023-06-04T09:37:20;26.30;51.20
47825;DHT22;33589;48.242;14.676;2023-06-04T09:39:57;26.30;51.40
47825;DHT22;33589;48.242;14.676;2023-06-04T09:42:23;26.20;51.10
47825;DHT22;33589;48.242;14.676;2023-06-04T09:44:49;26.10;51.20
47825;DHT22;33589;48.242;14.676;2023-06-04T09:47:15;26.00;51.40
47825;DHT22;33589;48.242;14.676;2023-06-04T09:49:49;25.70;51.60
47825;DHT22;33589;48.242;14.676;2023-06-04T09:52:16;25.60;52.10
47825;DHT22;33589;48.242;14.676;2023-06-04T09:54:42;25.60;52.00
47825;DHT22;33589;48.242;14.676;2023-06-04T09:57:15;25.40;52.10
47825;DHT22;33589;48.242;14.676;2023-06-04T09:59:45;25.40;51.80
47825;DHT22;33589;48.242;14.676;2023-06-04T10:02:12;25.40;51.80
47825;DHT22;33589;48.242;14.676;2023-06-04T10:04:41;25.20;52.00
47825;DHT22;33589;48.242;14.676;2023-06-04T10:07:09;25.20;52.90
47825;DHT22;33589;48.242;14.676;2023-06-04T10:09:38;25.20;52.90
47825;DHT22;33589;48.242;14.676;2023-06-04T10:12:13;25.20;53.30
47825;DHT22;33589;48.242;14.676;2023-06-04T10:14:52;25.40;53.30
47825;DHT22;33589;48.242;14.676;2023-06-04T10:17:22;25.60;53.80
47825;DHT22;33589;48.242;14.676;2023-06-04T10:19:49;25.90;52.90
47825;DHT22;33589;48.242;14.676;2023-06-04T10:22:17;26.00;52.50
47825;DHT22;33589;48.242;14.676;2023-06-04T10:24:44;26.30;52.30
47825;DHT22;33589;48.242;14.676;2023-06-04T10:27:11;26.30;52.10
47825;DHT22;33589;48.242;14.676;2023-06-04T10:29:39;26.30;51.60
47825;DHT22;33589;48.242;14.676;2023-06-04T10:32:05;26.20;51.90
47825;DHT22;33589;48.242;14.676;2023-06-04T10:34:31;26.10;51.80
47825;DHT22;33589;48.242;14.676;2023-06-04T10:36:57;26.00;51.90
47825;DHT22;33589;48.242;14.676;2023-06-04T10:39:29;25.90;52.10
47825;DHT22;33589;48.242;14.676;2023-06-04T10:42:05;26.00;52.40
47825;DHT22;33589;48.242;14.676;2023-06-04T10:44:32;26.00;51.60
47825;DHT22;33589;48.242;14.676;2023-06-04T10:47:21;25.90;52.30
47825;DHT22;33589;48.242;14.676;2023-06-04T10:49:48;26.10;52.10
47825;DHT22;33589;48.242;14.676;2023-06-04T10:52:14;26.10;51.60
47825;DHT22;33589;48.242;14.676;2023-06-04T10:54:42;26.10;51.80
47825;DHT22;33589;48.242;14.676;2023-06-04T10:57:17;26.20;51.30
47825;DHT22;33589;48.242;14.676;2023-06-04T10:59:56;26.30;52.10
47825;DHT22;33589;48.242;14.676;2023-06-04T11:02:23;26.50;51.20
47825;DHT22;33589;48.242;14.676;2023-06-04T11:05:07;26.80;51.70
47825;DHT22;33589;48.242;14.676;2023-06-04T11:07:46;27.10;51.10
47825;DHT22;33589;48.242;14.676;2023-06-04T11:10:12;27.30;49.60
47825;DHT22;33589;48.242;14.676;2023-06-04T11:12:43;27.40;50.00
47825;DHT22;33589;48.242;14.676;2023-06-04T11:15:09;27.50;48.60
47825;DHT22;33589;48.242;14.676;2023-06-04T11:17:34;27.50;49.00
47825;DHT22;33589;48.242;14.676;2023-06-04T11:20:00;27.50;49.50
47825;DHT22;33589;48.242;14.676;2023-06-04T11:22:26;27.60;48.90
47825;DHT22;33589;48.242;14.676;2023-06-04T11:24:58;27.70;48.00
47825;DHT22;33589;48.242;14.676;2023-06-04T11:27:24;27.80;47.60
47825;DHT22;33589;48.242;14.676;2023-06-04T11:29:51;27.90;47.20
47825;DHT22;33589;48.242;14.676;2023-06-04T11:32:24;28.00;47.00
47825;DHT22;33589;48.242;14.676;2023-06-04T11:34:50;28.10;46.80
47825;DHT22;33589;48.242;14.676;2023-06-04T11:37:15;28.20;46.70
47825;DHT22;33589;48.242;14.676;2023-06-04T11:39:41;28.40;46.50
47825;DHT22;33589;48.242;14.676;2023-06-04T11:42:10;28.60;47.00
47825;DHT22;33589;48.242;14.676;2023-06-04T11:44:35;28.70;47.10
47825;DHT22;33589;48.242;14.676;2023-06-04T11:47:05;29.00;46.20
47825;DHT22;33589;48.242;14.676;2023-06-04T11:49:31;29.00;46.00
47825;DHT22;33589;48.242;14.676;2023-06-04T11:51:57;29.00;46.10
47825;DHT22;33589;48.242;14.676;2023-06-04T11:54:23;29.00;46.80
47825;DHT22;33589;48.242;14.676;2023-06-04T11:56:51;28.60;47.70
47825;DHT22;33589;48.242;14.676;2023-06-04T11:59:17;28.30;48.70
47825;DHT22;33589;48.242;14.676;2023-06-04T12:01:44;28.20;49.10
47825;DHT22;33589;48.242;14.676;2023-06-04T12:04:17;28.00;48.80
47825;DHT22;33589;48.242;14.676;2023-06-04T12:07:00;27.70;49.00
47825;DHT22;33589;48.242;14.676;2023-06-04T12:09:33;27.50;48.80
47825;DHT22;33589;48.242;14.676;2023-06-04T12:12:06;27.40;49.30
47825;DHT22;33589;48.242;14.676;2023-06-04T12:14:32;27.40;49.50
47825;DHT22;33589;48.242;14.676;2023-06-04T12:17:00;27.10;49.30
47825;DHT22;33589;48.242;14.676;2023-06-04T12:19:27;27.00;49.60
47825;DHT22;33589;48.242;14.676;2023-06-04T12:22:03;27.00;49.40
47825;DHT22;33589;48.242;14.676;2023-06-04T12:24:29;26.90;49.00
47825;DHT22;33589;48.242;14.676;2023-06-04T12:27:08;26.80;49.50
47825;DHT22;33589;48.242;14.676;2023-06-04T12:29:35;26.80;49.60
47825;DHT22;33589;48.242;14.676;2023-06-04T12:32:05;26.90;49.90
47825;DHT22;33589;48.242;14.676;2023-06-04T12:34:36;27.00;49.80
47825;DHT22;33589;48.242;14.676;2023-06-04T12:37:02;26.90;50.00
47825;DHT22;33589;48.242;14.676;2023-06-04T12:39:35;26.80;50.30
47825;DHT22;33589;48.242;14.676;2023-06-04T12:42:06;26.70;50.50
47825;DHT22;33589;48.242;14.676;2023-06-04T12:44:32;26.70;50.70
47825;DHT22;33589;48.242;14.676;2023-06-04T12:46:58;26.70;50.80
47825;DHT22;33589;48.242;14.676;2023-06-04T12:49:23;26.70;50.80
47825;DHT22;33589;48.242;14.676;2023-06-04T12:51:49;26.70;50.90
47825;DHT22;33589;48.242;14.676;2023-06-04T12:54:15;26.70;50.40
47825;DHT22;33589;48.242;14.676;2023-06-04T12:56:41;26.80;50.60
47825;DHT22;33589;48.242;14.676;2023-06-04T12:59:07;26.80;50.40
47825;DHT22;33589;48.242;14.676;2023-06-04T13:01:32;26.80;50.20
47825;DHT22;33589;48.242;14.676;2023-06-04T13:03:58;26.80;50.40
47825;DHT22;33589;48.242;14.676;2023-06-04T13:06:24;26.80;50.70
47825;DHT22;33589;48.242;14.676;2023-06-04T13:08:49;26.80;50.70
47825;DHT22;33589;48.242;14.676;2023-06-04T13:11:15;26.70;50.10
47825;DHT22;33589;48.242;14.676;2023-06-04T13:13:41;26.60;50.10
47825;DHT22;33589;48.242;14.676;2023-06-04T13:16:07;26.50;50.40
47825;DHT22;33589;48.242;14.676;2023-06-04T13:18:33;26.60;51.10
47825;DHT22;33589;48.242;14.676;2023-06-04T13:20:59;26.70;50.80
47825;DHT22;33589;48.242;14.676;2023-06-04T13:23:24;26.70;50.50
47825;DHT22;33589;48.242;14.676;2023-06-04T13:25:50;26.70;51.00
47825;DHT22;33589;48.242;14.676;2023-06-04T13:28:17;26.80;50.30
47825;DHT22;33589;48.242;14.676;2023-06-04T13:30:43;26.80;50.30
47825;DHT22;33589;48.242;14.676;2023-06-04T13:33:09;26.70;50.10
47825;DHT22;33589;48.242;14.676;2023-06-04T13:35:34;26.50;50.40
47825;DHT22;33589;48.242;14.676;2023-06-04T13:38:03;26.40;50.60
47825;DHT22;33589;48.242;14.676;2023-06-04T13:40:29;26.30;50.50
47825;DHT22;33589;48.242;14.676;2023-06-04T13:42:55;26.30;50.70
47825;DHT22;33589;48.242;14.676;2023-06-04T13:45:21;26.30;51.10
47825;DHT22;33589;48.242;14.676;2023-06-04T13:47:47;26.30;51.30
47825;DHT22;33589;48.242;14.676;2023-06-04T13:50:16;26.20;51.10
47825;DHT22;33589;48.242;14.676;2023-06-04T13:52:43;26.30;51.70
47825;DHT22;33589;48.242;14.676;2023-06-04T13:55:08;26.30;51.30
47825;DHT22;33589;48.242;14.676;2023-06-04T13:57:34;26.20;51.40
47825;DHT22;33589;48.242;14.676;2023-06-04T14:00:00;26.30;51.40
47825;DHT22;33589;48.242;14.676;2023-06-04T14:02:26;26.30;51.00
47825;DHT22;33589;48.242;14.676;2023-06-04T14:04:53;26.30;51.00
47825;DHT22;33589;48.242;14.676;2023-06-04T14:07:19;26.30;51.50
47825;DHT22;33589;48.242;14.676;2023-06-04T14:09:45;26.30;50.70
47825;DHT22;33589;48.242;14.676;2023-06-04T14:12:10;26.20;50.90
47825;DHT22;33589;48.242;14.676;2023-06-04T14:14:36;26.20;51.10
47825;DHT22;33589;48.242;14.676;2023-06-04T14:17:05;26.30;51.50
47825;DHT22;33589;48.242;14.676;2023-06-04T14:19:34;26.30;51.90
47825;DHT22;33589;48.242;14.676;2023-06-04T14:22:01;26.30;52.30
47825;DHT22;33589;48.242;14.676;2023-06-04T14:24:27;26.30;52.60
47825;DHT22;33589;48.242;14.676;2023-06-04T14:26:52;26.30;52.80
47825;DHT22;33589;48.242;14.676;2023-06-04T14:29:18;26.30;52.90
47825;DHT22;33589;48.242;14.676;2023-06-04T14:31:44;26.20;53.40
47825;DHT22;33589;48.242;14.676;2023-06-04T14:34:10;26.20;53.80
47825;DHT22;33589;48.242;14.676;2023-06-04T14:36:36;26.10;54.10
47825;DHT22;33589;48.242;14.676;2023-06-04T14:39:02;26.30;54.30
47825;DHT22;33589;48.242;14.676;2023-06-04T14:41:28;26.40;53.30
47825;DHT22;33589;48.242;14.676;2023-06-04T14:43:54;26.40;52.80
47825;DHT22;33589;48.242;14.676;2023-06-04T14:46:19;26.40;51.60
47825;DHT22;33589;48.242;14.676;2023-06-04T14:48:45;26.40;51.70
47825;DHT22;33589;48.242;14.676;2023-06-04T14:51:11;26.50;51.40
47825;DHT22;33589;48.242;14.676;2023-06-04T14:53:37;26.50;51.50
47825;DHT22;33589;48.242;14.676;2023-06-04T14:56:06;26.60;51.10
47825;DHT22;33589;48.242;14.676;2023-06-04T14:58:32;26.70;50.50
47825;DHT22;33589;48.242;14.676;2023-06-04T15:01:01;26.60;49.50
47825;DHT22;33589;48.242;14.676;2023-06-04T15:03:29;26.50;48.50
47825;DHT22;33589;48.242;14.676;2023-06-04T15:05:55;26.40;48.50
47825;DHT22;33589;48.242;14.676;2023-06-04T15:08:21;26.40;49.10
47825;DHT22;33589;48.242;14.676;2023-06-04T15:10:47;26.30;49.70
47825;DHT22;33589;48.242;14.676;2023-06-04T15:13:13;26.30;50.20
47825;DHT22;33589;48.242;14.676;2023-06-04T15:15:38;26.30;51.00
47825;DHT22;33589;48.242;14.676;2023-06-04T15:18:04;26.40;50.80
47825;DHT22;33589;48.242;14.676;2023-06-04T15:20:32;26.40;51.10